Time;durP1;ratioP1;P1;durP2;ratioP2;P2;SDS_P1;SDS_P2;PMS_P1;PMS_P2;Temp;Humidity;BMP_temperature;BMP_pressure;BME280_temperature;BME280_humidity;BME280_pressure;Samples;Min_cycle;Max_cycle;Signal;HPM_P1;HPM_P2
2022/03/19 00:00:32;;;;;;;29.45;18.42;;;13.10;2201.60;;;;;;5133701;27;20102;-78
2022/03/19 00:02:57;;;;;;;35.28;21.98;;;13.20;2201.60;;;;;;5115577;27;20042;-76
2022/03/19 00:05:23;;;;;;;36.85;22.20;;;13.20;2201.60;;;;;;5115603;27;20027;-79
2022/03/19 00:07:50;;;;;;;39.45;24.60;;;13.20;2201.60;;;;;;5111492;27;20469;-80
2022/03/19 00:10:17;;;;;;;39.17;23.33;;;13.30;2201.60;;;;;;5133893;27;20019;-79
2022/03/19 00:12:42;;;;;;;41.72;24.17;;;13.30;2201.60;;;;;;5133935;27;20023;-79
2022/03/19 00:15:10;;;;;;;42.00;27.45;;;13.30;2201.60;;;;;;5115297;27;20068;-79
2022/03/19 00:17:36;;;;;;;45.80;22.65;;;13.20;2201.60;;;;;;5133574;27;20030;-79
2022/03/19 00:20:04;;;;;;;40.55;23.20;;;13.30;2201.60;;;;;;5133213;27;20077;-80
2022/03/19 00:22:30;;;;;;;31.15;16.25;;;13.30;2201.60;;;;;;5133607;27;20126;-79
2022/03/19 00:24:57;;;;;;;32.15;14.30;;;13.50;2201.60;;;;;;5115180;27;20114;-80
2022/03/19 00:27:24;;;;;;;31.95;19.85;;;;;;;;;;5133382;27;20059;-80
2022/03/19 00:29:50;;;;;;;39.03;20.00;;;;;;;;;;5133640;27;20497;-80
2022/03/19 00:32:16;;;;;;;33.88;20.40;;;;;;;;;;5115183;27;20050;-79
2022/03/19 00:34:42;;;;;;;39.95;22.05;;;13.40;2201.60;;;;;;5133471;27;20019;-79
2022/03/19 00:37:07;;;;;;;32.10;19.95;;;13.60;2201.60;;;;;;5115048;27;20072;-81
2022/03/19 00:39:33;;;;;;;34.97;19.70;;;13.50;2201.60;;;;;;5111425;28;20518;-83
2022/03/19 00:41:59;;;;;;;33.00;20.27;;;13.60;2201.60;;;;;;5112560;28;20154;-79
2022/03/19 00:44:24;;;;;;;33.08;19.95;;;13.60;2201.60;;;;;;5111584;28;20382;-78
2022/03/19 00:46:50;;;;;;;37.38;22.33;;;13.60;2201.60;;;;;;5112444;28;20115;-78
2022/03/19 00:49:16;;;;;;;31.27;20.77;;;13.60;2201.60;;;;;;5111463;28;20532;-79
2022/03/19 00:51:42;;;;;;;34.35;20.48;;;13.60;2201.60;;;;;;5113158;28;20059;-78
2022/03/19 00:54:09;;;;;;;37.53;20.75;;;13.50;2201.60;;;;;;5111268;28;20068;-79
2022/03/19 00:56:36;;;;;;;30.48;19.45;;;13.50;2201.60;;;;;;5112753;28;20019;-78
2022/03/19 00:59:01;;;;;;;33.80;20.15;;;13.60;2201.60;;;;;;5105412;28;20020;-78
2022/03/19 01:01:28;;;;;;;30.38;19.63;;;13.50;2201.60;;;;;;5091017;28;20490;-78
2022/03/19 01:03:54;;;;;;;32.38;19.17;;;13.50;2201.60;;;;;;5090956;28;20632;-78
2022/03/19 01:06:20;;;;;;;37.75;21.17;;;13.50;2201.60;;;;;;5091891;28;20077;-78
2022/03/19 01:08:46;;;;;;;36.28;21.73;;;13.50;2201.60;;;;;;5091957;28;20036;-78
2022/03/19 01:11:12;;;;;;;39.65;19.83;;;13.50;2201.60;;;;;;5090727;28;20050;-78
2022/03/19 01:13:37;;;;;;;29.50;18.13;;;13.60;2201.60;;;;;;5092038;28;20031;-78
2022/03/19 01:16:03;;;;;;;32.17;19.35;;;13.50;2201.60;;;;;;5091965;28;20081;-76
2022/03/19 01:18:30;;;;;;;33.13;20.90;;;13.60;2201.60;;;;;;5092345;28;20036;-78
2022/03/19 01:20:56;;;;;;;35.70;21.23;;;13.60;2201.60;;;;;;5092179;28;20107;-79
2022/03/19 01:23:25;;;;;;;38.80;21.42;;;13.50;2201.60;;;;;;5092039;28;20075;-82
2022/03/19 01:25:50;;;;;;;33.42;20.45;;;13.50;2201.60;;;;;;5090440;28;20047;-78
2022/03/19 01:28:16;;;;;;;31.65;18.10;;;13.50;2201.60;;;;;;5091714;28;20055;-78
2022/03/19 01:30:42;;;;;;;22.58;16.08;;;13.60;2201.60;;;;;;5090758;28;20078;-78
2022/03/19 01:33:07;;;;;;;30.67;19.77;;;13.70;2201.60;;;;;;5093570;28;20028;-81
2022/03/19 01:35:33;;;;;;;34.42;19.85;;;13.70;2201.60;;;;;;5095700;28;20477;-81
2022/03/19 01:37:59;;;;;;;32.72;18.98;;;13.70;2201.60;;;;;;5094663;28;20028;-76
2022/03/19 01:40:24;;;;;;;37.10;21.65;;;13.70;2201.60;;;;;;5114122;28;20051;-78
2022/03/19 01:42:52;;;;;;;39.03;21.17;;;38.40;2201.60;;;;;;5116217;28;20096;-77
2022/03/19 01:45:22;;;;;;;36.92;23.35;;;38.40;2201.60;;;;;;5097848;28;20038;-77
2022/03/19 01:47:48;;;;;;;43.97;22.85;;;38.50;2201.60;;;;;;5115834;28;20386;-78
2022/03/19 01:50:15;;;;;;;36.50;22.08;;;38.50;2201.60;;;;;;5097718;28;20027;-76
2022/03/19 01:52:41;;;;;;;44.60;22.70;;;38.40;2201.60;;;;;;5115750;28;20435;-78
2022/03/19 01:55:08;;;;;;;44.67;24.80;;;38.50;2201.60;;;;;;5097585;28;20046;-76
2022/03/19 01:57:38;;;;;;;39.92;22.33;;;38.60;2201.60;;;;;;5097616;28;20466;-79
2022/03/19 02:00:06;;;;;;;38.95;23.80;;;38.50;2201.60;;;;;;5097803;28;20505;-77
2022/03/19 02:02:32;;;;;;;31.90;19.40;;;38.50;2201.60;;;;;;5097425;28;20036;-77
2022/03/19 02:05:03;;;;;;;29.25;18.33;;;38.50;2201.60;;;;;;5115733;28;20030;-79
2022/03/19 02:07:29;;;;;;;34.78;19.17;;;38.50;2201.60;;;;;;5097440;28;20028;-80
2022/03/19 02:09:57;;;;;;;32.97;19.13;;;38.60;2201.60;;;;;;5115709;28;20452;-76
2022/03/19 02:12:23;;;;;;;36.08;19.23;;;38.60;2201.60;;;;;;5115605;28;20031;-81
2022/03/19 02:14:49;;;;;;;36.00;19.00;;;38.60;2201.60;;;;;;5115639;28;20024;-78
2022/03/19 02:17:14;;;;;;;26.95;17.55;;;38.60;2201.60;;;;;;5097215;28;20067;-79
2022/03/19 02:19:51;;;;;;;28.52;16.70;;;38.60;2201.60;;;;;;5097325;28;20034;-79
2022/03/19 02:22:19;;;;;;;27.88;17.25;;;38.70;2201.60;;;;;;5115366;28;20031;-79
2022/03/19 02:27:30;;;;;;;26.05;15.50;;;38.70;2201.60;;;;;;5115118;28;20524;-78
2022/03/19 02:29:57;;;;;;;34.47;20.45;;;38.70;2201.60;;;;;;5112057;27;20023;-77
2022/03/19 02:32:23;;;;;;;34.60;20.67;;;38.70;2201.60;;;;;;5135447;27;20076;-76
2022/03/19 02:34:49;;;;;;;39.67;23.23;;;38.80;2201.60;;;;;;5135770;27;20084;-76
2022/03/19 02:37:14;;;;;;;34.92;21.48;;;38.80;2201.60;;;;;;5135737;27;20462;-78
2022/03/19 02:39:40;;;;;;;36.42;23.55;;;38.80;2201.60;;;;;;5117005;27;20050;-79
2022/03/19 02:42:07;;;;;;;34.33;21.02;;;38.80;2201.60;;;;;;5117148;27;20091;-77
2022/03/19 02:44:34;;;;;;;33.75;21.13;;;38.80;2201.60;;;;;;5133981;27;20020;-79
2022/03/19 02:47:03;;;;;;;34.90;20.33;;;38.80;2201.60;;;;;;5135818;27;20019;-80
2022/03/19 02:49:28;;;;;;;39.97;23.73;;;38.80;2201.60;;;;;;5135790;27;20023;-80
2022/03/19 02:51:55;;;;;;;50.05;30.10;;;38.80;2201.60;;;;;;5117255;27;20033;-78
2022/03/19 02:54:26;;;;;;;53.17;30.30;;;38.80;2201.60;;;;;;5135509;27;20047;-78
2022/03/19 02:56:53;;;;;;;58.80;35.42;;;38.90;2201.60;;;;;;5135310;27;20034;-79
2022/03/19 02:59:24;;;;;;;59.88;35.15;;;39.00;2201.60;;;;;;5135694;27;20106;-78
2022/03/19 03:01:55;;;;;;;76.28;44.22;;;39.10;2201.60;;;;;;5135488;27;20031;-80
2022/03/19 03:04:21;;;;;;;82.75;48.08;;;39.10;2201.60;;;;;;5134999;27;20034;-79
2022/03/19 03:06:49;;;;;;;78.45;48.67;;;39.10;2201.60;;;;;;5116851;27;20046;-78
2022/03/19 03:09:18;;;;;;;92.40;54.13;;;39.20;2201.60;;;;;;5135154;27;20016;-78
2022/03/19 03:11:44;;;;;;;93.68;55.55;;;39.30;2201.60;;;;;;5135499;27;20019;-79
2022/03/19 03:14:10;;;;;;;98.05;56.30;;;39.30;2201.60;;;;;;5116800;27;20029;-78
2022/03/19 03:16:37;;;;;;;93.25;55.40;;;64.00;2201.60;;;;;;5116567;27;20031;-81
2022/03/19 03:19:08;;;;;;;100.47;57.47;;;39.30;2201.60;;;;;;5116561;27;20028;-79
2022/03/19 03:21:34;;;;;;;96.82;54.83;;;39.30;2201.60;;;;;;5116514;27;20465;-80
2022/03/19 03:24:01;;;;;;;106.82;57.42;;;39.30;2201.60;;;;;;5134499;27;20453;-78
2022/03/19 03:26:28;;;;;;;91.60;56.53;;;64.00;2201.60;;;;;;5112764;28;20027;-79
2022/03/19 03:28:54;;;;;;;96.97;55.13;;;39.30;2201.60;;;;;;5121007;27;20026;-80
2022/03/19 03:31:20;;;;;;;92.47;54.05;;;64.00;2201.60;;;;;;5134655;27;20027;-83
2022/03/19 03:33:46;;;;;;;103.70;58.58;;;64.00;2201.60;;;;;;5135160;27;20149;-81
2022/03/19 03:36:12;;;;;;;100.88;56.88;;;64.00;2201.60;;;;;;5116279;27;20469;-79
2022/03/19 03:38:38;;;;;;;95.95;58.45;;;64.00;2201.60;;;;;;5134590;27;20047;-80
2022/03/19 03:41:03;;;;;;;98.90;57.15;;;64.00;2201.60;;;;;;5116164;27;20026;-82
2022/03/19 03:43:29;;;;;;;88.00;54.38;;;64.00;2201.60;;;;;;5116202;27;20422;-80
2022/03/19 03:45:55;;;;;;;95.50;56.88;;;64.00;2201.60;;;;;;5134294;27;20034;-79
2022/03/19 03:48:21;;;;;;;97.68;55.33;;;64.00;2201.60;;;;;;5116183;27;20023;-79
2022/03/19 03:50:51;;;;;;;87.75;51.85;;;64.00;2201.60;;;;;;5134396;27;20024;-81
2022/03/19 03:53:18;;;;;;;77.75;46.72;;;64.00;2201.60;;;;;;5134096;27;20019;-78
2022/03/19 03:55:44;;;;;;;86.28;49.28;;;64.00;2201.60;;;;;;5115447;27;20030;-80
2022/03/19 03:58:11;;;;;;;82.70;48.65;;;64.00;2201.60;;;;;;5134486;27;20114;-81
2022/03/19 04:00:37;;;;;;;91.05;53.47;;;64.00;2201.60;;;;;;5134491;27;20016;-80
2022/03/19 04:03:04;;;;;;;71.38;41.33;;;64.00;2201.60;;;;;;5115491;27;20042;-78
2022/03/19 04:05:30;;;;;;;86.10;49.47;;;64.00;2201.60;;;;;;5115681;27;20027;-80
2022/03/19 04:07:56;;;;;;;82.90;50.92;;;64.00;2201.60;;;;;;5115576;27;20023;-78
2022/03/19 04:10:22;;;;;;;83.63;49.05;;;64.00;2201.60;;;;;;5115475;27;20096;-80
2022/03/19 04:12:48;;;;;;;83.35;46.92;;;64.10;2201.60;;;;;;5115589;27;20023;-77
2022/03/19 04:15:14;;;;;;;80.80;48.65;;;64.20;2201.60;;;;;;5115532;27;20454;-79
2022/03/19 04:17:42;;;;;;;77.00;47.92;;;64.20;2201.60;;;;;;5115627;27;20030;-81
2022/03/19 04:20:09;;;;;;;82.35;48.70;;;64.20;2201.60;;;;;;5115487;27;20023;-81
2022/03/19 04:22:40;;;;;;;90.65;52.25;;;64.30;2201.60;;;;;;5115313;27;20038;-81
2022/03/19 04:25:17;;;;;;;74.10;46.30;;;64.20;2201.60;;;;;;5133664;27;20106;-79
2022/03/19 04:27:45;;;;;;;50.83;31.20;;;64.30;2201.60;;;;;;5115164;27;20023;-78
2022/03/19 04:30:12;;;;;;;69.30;41.70;;;64.30;2201.60;;;;;;5097386;28;20027;-78
2022/03/19 04:32:42;;;;;;;52.75;31.65;;;64.30;2201.60;;;;;;5094799;28;20435;-78
2022/03/19 04:37:54;;;;;;;50.67;31.17;;;64.20;2201.60;;;;;;5112778;28;20504;-79
2022/03/19 04:40:20;;;;;;;62.90;35.70;;;64.20;2201.60;;;;;;5094367;28;20142;-78
2022/03/19 04:42:45;;;;;;;64.78;36.10;;;64.20;2201.60;;;;;;5094705;28;20146;-78
2022/03/19 04:45:13;;;;;;;62.30;38.10;;;64.10;2201.60;;;;;;5112703;28;20023;-78
2022/03/19 04:47:40;;;;;;;71.47;41.53;;;64.10;2201.60;;;;;;5094379;28;20040;-78
2022/03/19 04:50:07;;;;;;;79.88;44.78;;;64.10;2201.60;;;;;;5094413;28;20515;-80
2022/03/19 04:52:34;;;;;;;50.72;29.77;;;64.10;2201.60;;;;;;5094439;28;20027;-81
2022/03/19 04:55:00;;;;;;;45.63;23.92;;;64.10;2201.60;;;;;;5112631;28;20024;-78
2022/03/19 04:57:29;;;;;;;30.13;18.67;;;64.10;2201.60;;;;;;5112766;28;20459;-79
2022/03/19 04:59:59;;;;;;;32.70;19.35;;;64.30;2201.60;;;;;;5112348;28;20028;-79
2022/03/19 05:02:24;;;;;;;43.00;25.58;;;64.30;2201.60;;;;;;5094287;28;20047;-78
2022/03/19 05:04:57;;;;;;;48.10;27.40;;;64.30;2201.60;;;;;;5094231;28;20028;-78
2022/03/19 05:07:27;;;;;;;44.30;26.55;;;64.40;2201.60;;;;;;5094196;28;20039;-86
2022/03/19 05:12:43;;;;;;;50.08;26.42;;;64.30;2201.60;;;;;;5113309;28;20127;-88
2022/03/19 05:15:14;;;;;;;54.60;32.75;;;64.20;2201.60;;;;;;5095300;28;20363;-89
2022/03/19 05:17:40;;;;;;;113.32;58.40;;;64.20;2201.60;;;;;;5095112;28;20027;-87
2022/03/19 05:20:07;;;;;;;96.80;49.08;;;64.10;2201.60;;;;;;5113290;28;20382;-88
2022/03/19 05:22:33;;;;;;;62.85;34.17;;;64.10;2201.60;;;;;;5094978;28;20130;-84
2022/03/19 05:24:59;;;;;;;61.45;34.85;;;64.00;2201.60;;;;;;5094996;28;20059;-86
2022/03/19 05:27:25;;;;;;;133.90;69.13;;;39.30;2201.60;;;;;;5113071;28;20024;-87
2022/03/19 05:29:52;;;;;;;96.75;51.53;;;39.30;2201.60;;;;;;5127836;28;20106;-85
2022/03/19 05:32:18;;;;;;;83.45;41.60;;;39.20;2201.60;;;;;;5115254;28;20034;-86
2022/03/19 05:34:44;;;;;;;69.43;36.53;;;39.00;2201.60;;;;;;5133784;28;20096;-86
2022/03/19 05:37:10;;;;;;;46.85;24.55;;;39.10;2201.60;;;;;;5115154;28;20027;-83
2022/03/19 05:39:36;;;;;;;36.20;22.00;;;39.10;2201.60;;;;;;5133259;28;20050;-86
2022/03/19 05:42:03;;;;;;;39.45;21.23;;;39.30;2201.60;;;;;;5133076;28;20035;-84
2022/03/19 05:44:29;;;;;;;59.58;32.30;;;39.10;2201.60;;;;;;5133193;28;20021;-85
2022/03/19 05:46:55;;;;;;;54.97;32.72;;;38.90;2201.60;;;;;;5133478;28;20106;-81
2022/03/19 05:49:20;;;;;;;63.40;36.17;;;38.70;2201.60;;;;;;5114993;28;20023;-85
2022/03/19 05:51:46;;;;;;;96.57;53.88;;;38.60;2201.60;;;;;;5133601;28;20035;-79
2022/03/19 05:54:12;;;;;;;99.57;55.67;;;38.50;2201.60;;;;;;5133111;28;20027;-83
2022/03/19 05:56:38;;;;;;;81.30;46.05;;;38.40;2201.60;;;;;;5133046;28;20458;-79
2022/03/19 05:59:04;;;;;;;76.15;42.17;;;38.40;2201.60;;;;;;5114180;28;20023;-79
2022/03/19 06:01:30;;;;;;;81.03;50.15;;;13.70;2201.60;;;;;;5132519;28;20020;-81
2022/03/19 06:03:58;;;;;;;82.20;44.60;;;13.50;2201.60;;;;;;5132913;28;20027;-81
2022/03/19 06:06:25;;;;;;;72.10;41.15;;;13.40;2201.60;;;;;;5132323;28;20057;-82
2022/03/19 06:08:52;;;;;;;83.43;47.58;;;13.30;2201.60;;;;;;5114073;28;20114;-80
2022/03/19 06:11:18;;;;;;;86.13;47.03;;;13.10;2201.60;;;;;;5113971;28;20415;-80
2022/03/19 06:13:43;;;;;;;73.20;46.50;;;13.10;2201.60;;;;;;5132234;28;20510;-83
2022/03/19 06:16:10;;;;;;;72.40;41.60;;;13.20;2201.60;;;;;;5114267;28;20027;-84
2022/03/19 06:18:36;;;;;;;75.57;41.63;;;13.30;2201.60;;;;;;5134431;27;20032;-84
2022/03/19 06:21:03;;;;;;;73.38;42.13;;;13.20;2201.60;;;;;;5136374;27;20043;-82
2022/03/19 06:23:29;;;;;;;72.80;42.80;;;13.20;2201.60;;;;;;5117671;27;20039;-80
2022/03/19 06:25:55;;;;;;;68.22;42.75;;;13.10;2201.60;;;;;;5136042;27;20025;-80
2022/03/19 06:28:20;;;;;;;61.47;38.08;;;13.10;2201.60;;;;;;5115308;27;20023;-80
2022/03/19 06:30:46;;;;;;;68.90;40.65;;;13.10;2201.60;;;;;;5114559;27;20124;-80
2022/03/19 06:33:12;;;;;;;67.05;38.35;;;13.00;2201.60;;;;;;5096273;28;20111;-81
2022/03/19 06:38:26;;;;;;;59.88;38.00;;;0.20;2201.60;;;;;;5115052;28;20038;-79
2022/03/19 06:40:51;;;;;;;62.22;36.38;;;0.30;2201.60;;;;;;5099647;27;20510;-80
2022/03/19 06:43:18;;;;;;;65.35;37.63;;;0.60;2201.60;;;;;;5122916;27;20031;-82
2022/03/19 06:45:43;;;;;;;60.25;35.42;;;0.70;2201.60;;;;;;5099385;28;20024;-83
2022/03/19 06:48:09;;;;;;;65.18;38.15;;;0.80;2201.60;;;;;;5097024;28;20028;-84
2022/03/19 06:50:35;;;;;;;71.20;40.63;;;0.90;2201.60;;;;;;5116489;27;20523;-86
2022/03/19 06:53:04;;;;;;;86.95;48.75;;;0.90;2201.60;;;;;;5106298;27;20031;-84
2022/03/19 06:55:31;;;;;;;79.18;44.55;;;0.90;2201.60;;;;;;5096952;28;20115;-84
2022/03/19 06:57:56;;;;;;;75.25;47.60;;;25.60;2201.60;;;;;;5097103;28;20035;-84
2022/03/19 07:00:23;;;;;;;72.05;43.30;;;25.80;2201.60;;;;;;5115490;27;20023;-84
2022/03/19 07:02:54;;;;;;;69.65;42.88;;;25.80;2201.60;;;;;;5101682;27;20027;-84
2022/03/19 07:05:24;;;;;;;70.25;40.15;;;25.90;2201.60;;;;;;5100428;28;20024;-82
2022/03/19 07:07:51;;;;;;;70.60;42.63;;;25.90;2201.60;;;;;;5114535;28;20019;-83
2022/03/19 07:10:18;;;;;;;76.07;43.85;;;26.10;2201.60;;;;;;5114677;28;20030;-84
2022/03/19 07:12:49;;;;;;;64.15;39.47;;;26.20;2201.60;;;;;;5127620;27;20023;-85
2022/03/19 07:15:16;;;;;;;66.05;38.30;;;26.30;2201.60;;;;;;5114761;27;20740;-82
2022/03/19 07:17:46;;;;;;;65.10;38.55;;;26.40;2201.60;;;;;;5114672;28;20028;-83
2022/03/19 07:20:16;;;;;;;55.63;35.22;;;26.40;2201.60;;;;;;5096809;28;20024;-84
2022/03/19 07:22:58;;;;;;;58.25;34.90;;;51.20;2227.20;;;;;;5116164;27;20092;-84
2022/03/19 07:25:28;;;;;;;51.08;31.90;;;51.30;2227.20;;;;;;5098229;27;20024;-83
2022/03/19 07:27:56;;;;;;;52.72;30.00;;;51.30;2227.20;;;;;;5096379;28;20028;-83
2022/03/19 07:30:23;;;;;;;61.30;35.03;;;51.40;2227.20;;;;;;5113639;28;20016;-82
2022/03/19 07:32:49;;;;;;;48.47;29.70;;;51.50;2227.20;;;;;;5096625;28;20035;-83
2022/03/19 07:35:15;;;;;;;52.85;30.85;;;51.40;2227.20;;;;;;5114566;28;20027;-82
2022/03/19 07:37:43;;;;;;;57.40;33.65;;;51.50;2227.20;;;;;;5096131;28;20027;-84
2022/03/19 07:40:10;;;;;;;51.47;32.33;;;51.50;2227.20;;;;;;5114479;28;20059;-85
2022/03/19 07:42:36;;;;;;;56.20;31.40;;;51.80;2227.20;;;;;;5114263;28;20036;-82
2022/03/19 07:45:03;;;;;;;42.88;28.25;;;52.00;2227.20;;;;;;5114613;28;20034;-84
2022/03/19 07:47:30;;;;;;;46.60;29.38;;;52.10;2227.20;;;;;;5096021;28;20382;-81
2022/03/19 07:49:55;;;;;;;54.10;33.83;;;76.80;2227.20;;;;;;5095921;28;20035;-84
2022/03/19 07:52:21;;;;;;;45.70;28.00;;;76.90;2227.20;;;;;;5114181;28;20032;-85
2022/03/19 07:54:47;;;;;;;63.72;29.88;;;77.00;2227.20;;;;;;5113738;28;20020;-79
2022/03/19 07:57:13;;;;;;;46.42;30.08;;;77.20;2227.20;;;;;;5113653;28;20053;-85
2022/03/19 07:59:40;;;;;;;48.50;30.63;;;77.10;2227.20;;;;;;5095608;28;20080;-85
2022/03/19 08:02:05;;;;;;;42.53;27.70;;;77.10;2227.20;;;;;;5113967;28;20067;-84
2022/03/19 08:04:31;;;;;;;44.75;29.60;;;77.20;2227.20;;;;;;5114226;28;20062;-84
2022/03/19 08:06:57;;;;;;;39.15;27.83;;;77.20;2227.20;;;;;;5114210;28;20027;-85
2022/03/19 08:09:24;;;;;;;43.70;29.33;;;77.30;2227.20;;;;;;5095910;28;20042;-85
2022/03/19 08:11:51;;;;;;;42.90;27.27;;;77.50;2227.20;;;;;;5095687;28;20073;-84
2022/03/19 08:14:18;;;;;;;39.72;26.05;;;102.40;2150.40;;;;;;5113943;28;20031;-85
2022/03/19 08:16:45;;;;;;;45.08;28.45;;;102.50;2022.40;;;;;;5113962;28;20034;-84
2022/03/19 08:19:13;;;;;;;43.22;27.52;;;102.50;2048.00;;;;;;5113845;28;20075;-83
2022/03/19 08:21:40;;;;;;;41.38;25.80;;;102.60;1996.80;;;;;;5095349;28;20031;-84
2022/03/19 08:24:07;;;;;;;40.60;25.67;;;102.70;1971.20;;;;;;5113696;28;20455;-84
2022/03/19 08:26:33;;;;;;;36.15;25.92;;;102.40;1971.20;;;;;;5095092;28;20028;-84
2022/03/19 08:28:59;;;;;;;43.88;26.95;;;102.40;1971.20;;;;;;5121000;27;20023;-84
2022/03/19 08:31:25;;;;;;;48.63;27.77;;;102.50;1971.20;;;;;;5133749;27;20030;-84
2022/03/19 08:33:51;;;;;;;48.55;26.33;;;102.80;1894.40;;;;;;5134577;27;20507;-84
2022/03/19 08:36:17;;;;;;;41.33;25.67;;;103.00;1843.20;;;;;;5133955;27;20072;-83
2022/03/19 08:41:27;;;;;;;41.63;28.27;;;103.20;1868.80;;;;;;5133799;27;20034;-83
2022/03/19 08:43:52;;;;;;;47.88;28.48;;;128.00;1868.80;;;;;;5133345;27;20043;-81
2022/03/19 08:46:19;;;;;;;37.92;27.05;;;128.20;1817.60;;;;;;5115225;27;20046;-83
2022/03/19 08:48:45;;;;;;;39.63;24.70;;;128.40;1817.60;;;;;;5133600;27;20055;-83
2022/03/19 08:53:55;;;;;;;32.90;21.77;;;128.90;1638.40;;;;;;5133296;27;20534;-84
2022/03/19 08:56:21;;;;;;;41.15;25.63;;;128.90;1638.40;;;;;;5115052;27;20023;-82
2022/03/19 08:58:47;;;;;;;42.08;25.95;;;153.60;1664.00;;;;;;5114733;27;20492;-84
2022/03/19 09:01:12;;;;;;;40.35;23.55;;;153.80;1638.40;;;;;;5133566;27;20058;-80
2022/03/19 09:03:38;;;;;;;29.40;20.20;;;153.80;1612.80;;;;;;5133237;27;20031;-85
2022/03/19 09:06:04;;;;;;;27.63;17.55;;;153.80;1561.60;;;;;;5114276;28;20048;-84
2022/03/19 09:08:30;;;;;;;27.58;18.27;;;128.80;1510.40;;;;;;5114898;27;20046;-84
2022/03/19 09:10:59;;;;;;;44.53;27.40;;;128.70;1536.00;;;;;;5115143;28;20051;-82
2022/03/19 09:13:24;;;;;;;33.15;20.67;;;153.80;1561.60;;;;;;5133323;28;20079;-84
2022/03/19 09:15:50;;;;;;;22.75;14.77;;;154.00;1484.80;;;;;;5133343;28;20509;-84
2022/03/19 09:18:20;;;;;;;21.92;14.32;;;154.20;1382.40;;;;;;5132908;28;20458;-83
2022/03/19 09:20:45;;;;;;;22.02;13.52;;;154.30;1382.40;;;;;;5133017;28;20015;-83
2022/03/19 09:23:11;;;;;;;23.92;15.23;;;154.40;1331.20;;;;;;5114215;28;20488;-82
2022/03/19 09:25:37;;;;;;;28.08;19.08;;;179.20;1305.60;;;;;;5114464;28;20023;-81
2022/03/19 09:28:03;;;;;;;34.35;19.85;;;154.50;1331.20;;;;;;5114273;28;20035;-80
2022/03/19 09:30:29;;;;;;;29.45;18.45;;;179.20;1356.80;;;;;;5094100;28;20034;-83
2022/03/19 09:32:58;;;;;;;23.52;16.05;;;179.30;1382.40;;;;;;5093867;28;20024;-82
2022/03/19 09:35:24;;;;;;;23.77;14.50;;;179.50;1356.80;;;;;;5111958;28;20028;-82
2022/03/19 09:37:51;;;;;;;23.08;14.43;;;179.60;1305.60;;;;;;5111853;28;20051;-82
2022/03/19 09:40:17;;;;;;;24.60;13.50;;;179.80;1305.60;;;;;;5112271;28;20040;-81
2022/03/19 09:42:48;;;;;;;22.35;13.70;;;179.80;1305.60;;;;;;5112127;28;20118;-81
2022/03/19 09:45:15;;;;;;;24.13;14.43;;;179.90;1305.60;;;;;;5112211;28;20111;-80
2022/03/19 09:47:41;;;;;;;22.48;13.15;;;204.80;1280.00;;;;;;5093596;28;20042;-81
2022/03/19 09:50:07;;;;;;;19.75;12.57;;;205.00;1254.40;;;;;;5111936;28;20463;-80
2022/03/19 09:52:36;;;;;;;23.92;11.95;;;205.10;1228.80;;;;;;5093803;28;20035;-81
2022/03/19 09:55:02;;;;;;;20.75;12.40;;;205.20;1228.80;;;;;;5115877;28;20024;-82
2022/03/19 09:57:27;;;;;;;21.55;13.00;;;205.30;1228.80;;;;;;5097621;28;20107;-80
2022/03/19 09:59:53;;;;;;;21.63;11.88;;;205.30;1203.20;;;;;;5097424;28;20459;-81
2022/03/19 10:02:19;;;;;;;22.60;13.77;;;205.40;1203.20;;;;;;5097280;28;20039;-80
2022/03/19 10:04:44;;;;;;;25.08;12.60;;;205.40;1177.60;;;;;;5115744;28;20024;-81
2022/03/19 10:09:56;;;;;;;20.92;11.27;;;205.60;1152.00;;;;;;5115763;28;20059;-82
2022/03/19 10:12:30;;;;;;;26.88;14.02;;;230.50;1126.40;;;;;;5099243;28;20074;-79
2022/03/19 10:14:57;;;;;;;35.22;13.20;;;;;;;;;;5120690;27;20102;-79
2022/03/19 10:17:29;;;;;;;20.80;10.70;;;230.50;1152.00;;;;;;5133780;27;20023;-80
2022/03/19 10:20:03;;;;;;;18.73;10.45;;;230.50;1126.40;;;;;;5133838;27;20054;-79
2022/03/19 10:22:29;;;;;;;16.42;11.32;;;230.40;1152.00;;;;;;5135784;27;20382;-79
2022/03/19 10:25:01;;;;;;;24.15;12.15;;;230.50;1152.00;;;;;;5117294;27;20094;-80
2022/03/19 10:27:37;;;;;;;16.88;12.60;;;230.90;1152.00;;;;;;5136057;27;20087;-78
2022/03/19 10:30:06;;;;;;;20.90;11.68;;;230.80;1126.40;;;;;;5117138;27;20125;-79
2022/03/19 10:32:33;;;;;;;20.55;14.35;;;;;;;;;;5135649;27;20027;-79
2022/03/19 10:34:59;;;;;;;22.40;14.80;;;;;;;;;;5135517;27;20441;-78
2022/03/19 10:37:39;;;;;;;26.20;11.75;;;231.30;1126.40;;;;;;5116437;27;20016;-78
2022/03/19 10:40:09;;;;;;;15.52;10.85;;;;;;;;;;5121880;27;20086;-77
2022/03/19 10:42:40;;;;;;;22.38;13.00;;;;;;;;;;5118457;27;20038;-80
2022/03/19 10:45:10;;;;;;;18.75;11.70;;;256.40;1100.80;;;;;;5095480;28;20043;-79
2022/03/19 10:47:45;;;;;;;21.48;12.75;;;256.50;1100.80;;;;;;5114532;28;20023;-80
2022/03/19 10:50:18;;;;;;;16.50;10.48;;;256.90;1100.80;;;;;;5096591;28;20024;-79
2022/03/19 10:52:44;;;;;;;20.80;10.70;;;;;;;;;;5096880;28;20031;-81
2022/03/19 10:55:11;;;;;;;19.20;11.63;;;;;;;;;;5132833;27;20032;-82
2022/03/19 10:57:37;;;;;;;19.10;11.68;;;;;;;;;;5135198;27;20026;-78
2022/03/19 11:00:04;;;;;;;14.77;10.63;;;;;;;;;;5115164;27;20023;-78
2022/03/19 11:02:31;;;;;;;13.80;10.00;;;;;;;;;;5116203;27;20028;-79
2022/03/19 11:04:58;;;;;;;23.67;12.93;;;;;;;;;;5104750;27;20055;-77
2022/03/19 11:07:25;;;;;;;26.08;12.18;;;;;;;;;;5126475;27;20059;-78
2022/03/19 11:09:53;;;;;;;24.90;13.50;;;;;;;;;;5110005;28;20077;-78
2022/03/19 11:12:21;;;;;;;11.45;8.85;;;;;;;;;;5099684;28;20026;-78
2022/03/19 11:14:50;;;;;;;20.25;11.82;;;;;;;;;;5095910;28;20105;-78
2022/03/19 11:17:28;;;;;;;15.48;10.88;;;;;;;;;;5114352;28;20031;-77
2022/03/19 11:20:00;;;;;;;22.83;13.18;;;;;;;;;;5114232;28;20020;-76
2022/03/19 11:22:27;;;;;;;16.77;10.25;;;;;;;;;;5095665;28;20039;-77
2022/03/19 11:25:09;;;;;;;16.30;10.45;;;;;;;;;;5130430;27;20019;-77
2022/03/19 11:27:39;;;;;;;11.45;9.90;;;;;;;;;;5114738;27;20019;-76
2022/03/19 11:30:05;;;;;;;14.23;10.32;;;;;;;;;;5112163;27;20068;-77
2022/03/19 11:32:31;;;;;;;16.77;11.23;;;;;;;;;;5116149;27;20015;-78
2022/03/19 11:34:59;;;;;;;16.23;11.05;;;;;;;;;;5116179;27;20526;-76
2022/03/19 11:37:45;;;;;;;16.77;10.45;;;;;;;;;;5134668;27;20019;-78
2022/03/19 11:40:12;;;;;;;12.65;9.88;;;;;;;;;;5134307;27;20406;-76
2022/03/19 11:42:50;;;;;;;16.00;9.63;;;;;;;;;;5134017;27;20031;-75
2022/03/19 11:45:16;;;;;;;17.17;9.63;;;;;;;;;;5134421;27;20019;-77
2022/03/19 11:47:43;;;;;;;15.00;9.80;;;;;;;;;;5129012;27;20019;-78
2022/03/19 11:50:26;;;;;;;14.48;9.70;;;;;;;;;;5105004;27;20108;-78
2022/03/19 11:52:55;;;;;;;12.15;10.30;;;;;;;;;;5118716;27;20020;-76
2022/03/19 11:55:29;;;;;;;13.30;10.57;;;;;;;;;;5114551;27;20020;-77
2022/03/19 11:58:00;;;;;;;16.40;9.52;;;;;;;;;;5113105;27;20098;-75
2022/03/19 12:00:33;;;;;;;13.00;10.15;;;;;;;;;;5131832;27;20027;-76
2022/03/19 12:03:02;;;;;;;10.35;8.55;;;;;;;;;;5134575;27;20035;-76
2022/03/19 12:05:28;;;;;;;10.73;8.75;;;;;;;;;;5135622;27;20015;-77
2022/03/19 12:07:57;;;;;;;15.25;9.90;;;;;;;;;;5123298;27;20538;-77
2022/03/19 12:10:31;;;;;;;14.13;10.10;;;;;;;;;;5096379;28;20068;-78
2022/03/19 12:12:58;;;;;;;16.15;10.77;;;;;;;;;;5115103;28;20086;-77
2022/03/19 12:15:33;;;;;;;23.67;12.25;;;;;;;;;;5113861;28;20045;-74
2022/03/19 12:18:17;;;;;;;16.17;10.15;;;;;;;;;;5096562;28;20062;-76
2022/03/19 12:20:43;;;;;;;22.73;12.15;;;;;;;;;;5113932;28;20020;-76
2022/03/19 12:23:12;;;;;;;17.13;10.00;;;;;;;;;;5094829;28;20035;-75
2022/03/19 12:25:42;;;;;;;14.20;9.38;;;;;;;;;;5112945;28;20363;-77
2022/03/19 12:28:08;;;;;;;16.65;10.35;;;;;;;;;;5113219;28;20023;-76
2022/03/19 12:30:35;;;;;;;14.90;9.10;;;;;;;;;;5115107;27;20027;-78
2022/03/19 12:33:02;;;;;;;14.38;9.68;;;;;;;;;;5133387;27;20054;-76
2022/03/19 12:35:44;;;;;;;19.95;10.27;;;;;;;;;;5116820;27;20482;-75
2022/03/19 12:38:11;;;;;;;11.47;8.73;;;;;;;;;;5094682;28;20090;-75
2022/03/19 12:43:23;;;;;;;15.82;10.25;;;;;;;;;;5112512;28;20074;-78
2022/03/19 12:45:50;;;;;;;14.00;9.50;;;;;;;;;;5112657;28;20061;-75
2022/03/19 12:48:20;;;;;;;16.95;9.70;;;;;;;;;;5113103;28;20515;-77
2022/03/19 12:50:54;;;;;;;13.52;11.32;;;;;;;;;;5094297;28;20024;-77